Time;durP1;ratioP1;P1;durP2;ratioP2;P2;SDS_P1;SDS_P2;PMS_P1;PMS_P2;Temp;Humidity;BMP_temperature;BMP_pressure;BME280_temperature;BME280_humidity;BME280_pressure;Samples;Min_cycle;Max_cycle;Signal;HPM_P1;HPM_P2
2022/01/29 00:00:57;;;;;;;31.42;19.92;;;;;;;;;;5037793;28;20205;-56
2022/01/29 00:03:25;;;;;;;37.50;22.10;;;;;;;;;;5035197;28;20221;-55
2022/01/29 00:05:54;;;;;;;34.78;20.52;;;;;;;;;;5036032;28;20206;-55
2022/01/29 00:08:21;;;;;;;37.58;22.50;;;;;;;;;;5035444;28;20209;-56
2022/01/29 00:10:53;;;;;;;37.15;23.08;;;;;;;;;;5034536;28;20202;-55
2022/01/29 00:13:22;;;;;;;40.35;23.95;;;;;;;;;;5034116;28;20254;-54
2022/01/29 00:15:49;;;;;;;40.75;24.15;;;;;;;;;;5033770;28;20206;-56
2022/01/29 00:18:17;;;;;;;41.72;25.77;;;;;;;;;;5033466;28;20206;-55
2022/01/29 00:20:44;;;;;;;43.67;25.45;;;;;;;;;;5033315;28;20785;-56
2022/01/29 00:23:12;;;;;;;39.63;24.38;;;;;;;;;;5033232;28;20237;-54
2022/01/29 00:25:39;;;;;;;46.70;25.70;;;;;;;;;;5036593;28;20206;-56
2022/01/29 00:28:06;;;;;;;43.50;25.45;;;;;;;;;;5037885;28;20608;-56
2022/01/29 00:30:39;;;;;;;44.60;25.95;;;;;;;;;;5037765;28;20206;-55
2022/01/29 00:33:06;;;;;;;41.08;24.48;;;;;;;;;;5037042;28;20300;-56
2022/01/29 00:35:34;;;;;;;39.72;25.75;;;;;;;;;;5037134;28;20206;-55
2022/01/29 00:38:01;;;;;;;43.88;26.35;;;;;;;;;;5037184;28;20202;-56
2022/01/29 00:40:28;;;;;;;39.10;22.17;;;;;;;;;;5037081;28;20235;-56
2022/01/29 00:42:56;;;;;;;39.35;25.85;;;;;;;;;;5036690;28;20714;-55
2022/01/29 00:45:23;;;;;;;42.85;25.30;;;;;;;;;;5037288;28;20206;-56
2022/01/29 00:47:52;;;;;;;46.33;27.38;;;;;;;;;;5036928;28;20212;-55
2022/01/29 00:50:20;;;;;;;41.47;25.15;;;;;;;;;;5036495;28;20299;-56
2022/01/29 00:52:48;;;;;;;45.78;26.30;;;;;;;;;;5036411;28;20218;-56
2022/01/29 00:55:15;;;;;;;41.17;25.73;;;;;;;;;;5036987;28;20268;-56
2022/01/29 00:57:43;;;;;;;41.47;25.90;;;;;;;;;;5036815;28;20206;-56
2022/01/29 01:00:11;;;;;;;38.20;24.60;;;;;;;;;;5036746;28;20203;-56
2022/01/29 01:02:39;;;;;;;45.25;26.08;;;;;;;;;;5036212;28;20601;-56
2022/01/29 01:05:08;;;;;;;42.80;25.52;;;;;;;;;;5036187;28;20588;-56
2022/01/29 01:07:35;;;;;;;40.30;23.65;;;;;;;;;;5036781;28;20205;-56
2022/01/29 01:10:03;;;;;;;41.80;26.17;;;;;;;;;;5036016;28;20209;-55
2022/01/29 01:12:30;;;;;;;40.15;24.92;;;;;;;;;;5036295;28;20277;-55
2022/01/29 01:14:58;;;;;;;39.60;25.35;;;;;;;;;;5036372;28;20232;-56
2022/01/29 01:17:25;;;;;;;40.33;27.17;;;;;;;;;;5036371;28;20202;-53
2022/01/29 01:19:52;;;;;;;36.45;24.73;;;;;;;;;;5036722;28;20520;-56
2022/01/29 01:22:21;;;;;;;42.15;23.55;;;;;;;;;;5036540;28;20227;-55
2022/01/29 01:24:48;;;;;;;40.28;27.45;;;;;;;;;;5036128;28;20256;-56
2022/01/29 01:27:16;;;;;;;44.40;23.42;;;;;;;;;;5036082;28;20202;-55
2022/01/29 01:29:43;;;;;;;37.97;23.48;;;;;;;;;;5036018;28;20230;-56
2022/01/29 01:32:14;;;;;;;36.17;24.17;;;;;;;;;;5036176;28;20209;-55
2022/01/29 01:34:46;;;;;;;33.00;22.80;;;;;;;;;;5035663;28;20725;-57
2022/01/29 01:37:20;;;;;;;38.85;24.00;;;;;;;;;;5034983;28;20198;-56
2022/01/29 01:39:48;;;;;;;38.85;23.83;;;;;;;;;;5035775;28;20190;-57
2022/01/29 01:42:16;;;;;;;31.80;20.27;;;;;;;;;;5035856;28;20237;-56
2022/01/29 01:44:46;;;;;;;35.33;22.65;;;;;;;;;;5036882;28;20289;-56
2022/01/29 01:47:13;;;;;;;35.75;24.45;;;;;;;;;;5035848;28;20300;-56
2022/01/29 01:49:41;;;;;;;41.58;25.23;;;;;;;;;;5036015;28;20213;-56
2022/01/29 01:52:09;;;;;;;36.85;23.40;;;;;;;;;;5035528;28;20206;-55
2022/01/29 01:54:37;;;;;;;34.35;22.17;;;;;;;;;;5035627;28;20244;-56
2022/01/29 01:57:06;;;;;;;36.97;24.00;;;;;;;;;;5035165;28;20211;-57
2022/01/29 01:59:34;;;;;;;37.95;24.05;;;;;;;;;;5035886;28;20207;-55
2022/01/29 02:02:01;;;;;;;34.22;23.90;;;;;;;;;;5035958;28;20213;-56
2022/01/29 02:04:28;;;;;;;38.15;23.38;;;;;;;;;;5036484;28;20225;-56
2022/01/29 02:06:56;;;;;;;33.92;22.20;;;;;;;;;;5036063;28;20202;-56
2022/01/29 02:09:24;;;;;;;36.08;22.92;;;;;;;;;;5036219;28;20213;-55
2022/01/29 02:11:53;;;;;;;40.25;25.13;;;;;;;;;;5036218;28;20565;-55
2022/01/29 02:14:24;;;;;;;37.10;25.90;;;;;;;;;;5036456;28;20580;-56
2022/01/29 02:16:52;;;;;;;33.70;21.52;;;;;;;;;;5037072;28;20213;-56
2022/01/29 02:19:19;;;;;;;39.33;25.30;;;;;;;;;;5035847;28;20578;-56
2022/01/29 02:21:48;;;;;;;34.55;21.80;;;;;;;;;;5035306;28;20671;-55
2022/01/29 02:24:16;;;;;;;34.10;20.02;;;;;;;;;;5034476;28;20245;-56
2022/01/29 02:26:43;;;;;;;41.92;24.73;;;;;;;;;;5035243;28;20210;-56
2022/01/29 02:29:10;;;;;;;38.15;24.60;;;;;;;;;;5034960;28;20229;-55
2022/01/29 02:31:45;;;;;;;40.75;24.95;;;;;;;;;;5034582;28;20209;-55
2022/01/29 02:34:13;;;;;;;42.97;25.83;;;;;;;;;;5034355;28;20226;-57
2022/01/29 02:36:42;;;;;;;38.65;25.20;;;;;;;;;;5034634;28;20603;-56
2022/01/29 02:39:10;;;;;;;43.25;26.90;;;;;;;;;;5034417;28;20301;-55
2022/01/29 02:41:40;;;;;;;41.17;26.45;;;;;;;;;;5034502;28;20260;-56
2022/01/29 02:44:09;;;;;;;43.90;26.40;;;;;;;;;;5034265;28;20233;-56
2022/01/29 02:46:49;;;;;;;48.08;28.10;;;;;;;;;;5034257;28;20650;-55
2022/01/29 02:49:16;;;;;;;46.20;27.33;;;;;;;;;;5033628;28;20209;-55
2022/01/29 02:51:48;;;;;;;40.60;25.52;;;;;;;;;;5033980;28;20674;-55
2022/01/29 02:54:17;;;;;;;43.40;27.88;;;;;;;;;;5034129;28;20226;-55
2022/01/29 02:56:44;;;;;;;45.83;28.30;;;;;;;;;;5034308;28;20215;-56
2022/01/29 02:59:12;;;;;;;43.50;29.13;;;;;;;;;;5034322;28;20217;-56
2022/01/29 03:01:40;;;;;;;45.85;29.85;;;;;;;;;;5034215;28;20233;-56
2022/01/29 03:04:07;;;;;;;43.00;25.15;;;;;;;;;;5033941;28;20226;-56
2022/01/29 03:06:34;;;;;;;40.55;25.30;;;;;;;;;;5034059;28;20205;-56
2022/01/29 03:09:02;;;;;;;46.38;27.77;;;;;;;;;;5034070;28;20209;-56
2022/01/29 03:11:31;;;;;;;44.58;26.55;;;;;;;;;;5033690;28;20705;-57
2022/01/29 03:13:58;;;;;;;46.25;27.92;;;;;;;;;;5033425;28;20222;-56
2022/01/29 03:16:25;;;;;;;43.95;28.15;;;;;;;;;;5033827;28;20205;-55
2022/01/29 03:18:53;;;;;;;42.80;28.15;;;;;;;;;;5033839;28;20203;-56
2022/01/29 03:21:20;;;;;;;46.92;26.95;;;;;;;;;;5034008;28;20238;-56
2022/01/29 03:23:47;;;;;;;38.95;26.75;;;;;;;;;;5033365;28;20594;-56
2022/01/29 03:26:15;;;;;;;46.83;27.45;;;;;;;;;;5033969;28;20198;-56
2022/01/29 03:28:43;;;;;;;48.30;25.48;;;;;;;;;;5033575;28;20209;-56
2022/01/29 03:31:11;;;;;;;42.95;26.55;;;;;;;;;;5033621;28;20207;-56
2022/01/29 03:33:38;;;;;;;43.78;26.63;;;;;;;;;;5033154;28;20233;-56
2022/01/29 03:36:05;;;;;;;39.47;23.83;;;;;;;;;;5033925;28;20230;-55
2022/01/29 03:38:33;;;;;;;38.00;25.98;;;;;;;;;;5033677;28;20667;-56
2022/01/29 03:41:01;;;;;;;43.03;26.75;;;;;;;;;;5033328;28;20206;-55
2022/01/29 03:43:32;;;;;;;38.92;24.85;;;;;;;;;;5033399;28;20305;-54
2022/01/29 03:46:01;;;;;;;32.90;22.63;;;;;;;;;;5033342;28;20357;-57
2022/01/29 03:48:28;;;;;;;36.42;23.63;;;;;;;;;;5033082;28;20202;-55
2022/01/29 03:50:55;;;;;;;34.75;23.83;;;;;;;;;;5033636;28;20206;-56
2022/01/29 03:53:23;;;;;;;31.45;21.17;;;;;;;;;;5033320;28;20245;-57
2022/01/29 03:55:50;;;;;;;33.55;23.73;;;;;;;;;;5033159;28;20218;-56
2022/01/29 03:58:17;;;;;;;32.42;21.23;;;;;;;;;;5034199;28;20256;-56
2022/01/29 04:00:45;;;;;;;29.63;20.33;;;;;;;;;;5033265;28;20198;-57
2022/01/29 04:03:13;;;;;;;35.55;22.08;;;;;;;;;;5033012;28;20218;-55
2022/01/29 04:09:17;;;;;;;33.85;23.95;;;;;;;;;;5091775;27;20546;-58
2022/01/29 04:11:44;;;;;;;38.85;22.30;;;;;;;;;;5091445;28;20215;-57
2022/01/29 04:14:16;;;;;;;35.08;22.38;;;;;;;;;;5091859;28;20220;-58
2022/01/29 04:16:44;;;;;;;33.58;22.38;;;;;;;;;;5091478;28;20189;-58
2022/01/29 04:19:11;;;;;;;34.58;21.05;;;;;;;;;;5090774;28;20717;-58
2022/01/29 04:21:39;;;;;;;33.08;21.98;;;;;;;;;;5075927;22;20230;-62
2022/01/29 04:24:06;;;;;;;32.17;21.65;;;;;;;;;;5050197;28;20216;-62
2022/01/29 04:26:35;;;;;;;33.80;22.73;;;;;;;;;;5050266;28;20214;-62
2022/01/29 04:29:04;;;;;;;31.98;22.00;;;;;;;;;;5049893;28;20287;-61
2022/01/29 04:31:39;;;;;;;34.00;22.23;;;;;;;;;;5050015;28;20225;-61
2022/01/29 04:34:06;;;;;;;33.83;22.55;;;;;;;;;;5050014;28;20634;-61
2022/01/29 04:36:33;;;;;;;33.05;21.85;;;;;;;;;;5050178;28;20206;-61
2022/01/29 04:39:01;;;;;;;31.35;19.73;;;;;;;;;;5049694;28;20205;-62
2022/01/29 04:41:28;;;;;;;35.45;22.75;;;;;;;;;;5049637;28;20221;-62
2022/01/29 04:43:57;;;;;;;33.60;22.23;;;;;;;;;;5054244;28;20209;-62
2022/01/29 04:46:24;;;;;;;37.30;23.30;;;;;;;;;;5058408;28;20210;-60
2022/01/29 04:48:53;;;;;;;38.28;23.55;;;;;;;;;;5056866;28;20233;-62
2022/01/29 04:51:20;;;;;;;35.13;23.42;;;;;;;;;;5057802;28;20221;-62
2022/01/29 04:53:47;;;;;;;30.80;22.10;;;;;;;;;;5053647;28;20674;-63
2022/01/29 04:56:15;;;;;;;32.05;22.92;;;;;;;;;;5050398;28;20216;-62
2022/01/29 04:58:42;;;;;;;27.73;20.60;;;;;;;;;;5050135;28;20215;-62
2022/01/29 05:01:11;;;;;;;30.92;21.02;;;;;;;;;;5049634;28;20229;-63
2022/01/29 05:03:38;;;;;;;30.52;19.90;;;;;;;;;;5049466;28;20669;-62
2022/01/29 05:06:09;;;;;;;29.85;20.52;;;;;;;;;;5050000;28;20674;-62
2022/01/29 05:08:37;;;;;;;31.75;21.30;;;;;;;;;;5050691;28;20678;-62
2022/01/29 05:11:05;;;;;;;31.23;20.52;;;;;;;;;;5050316;28;20229;-61
2022/01/29 05:13:34;;;;;;;33.00;22.55;;;;;;;;;;5050365;28;20209;-61
2022/01/29 05:27:07;;;;;;;27.27;19.15;;;;;;;;;;5036634;28;20243;-62
2022/01/29 05:29:36;;;;;;;26.10;19.05;;;;;;;;;;5036142;28;20201;-61
2022/01/29 05:32:05;;;;;;;25.95;18.70;;;;;;;;;;5035769;28;20265;-62
2022/01/29 05:34:34;;;;;;;26.75;19.30;;;;;;;;;;5036218;28;20206;-62
2022/01/29 05:37:02;;;;;;;26.35;19.70;;;;;;;;;;5035882;28;20210;-62
2022/01/29 05:39:30;;;;;;;25.52;18.55;;;;;;;;;;5036016;28;20194;-62
2022/01/29 05:41:58;;;;;;;26.75;20.00;;;;;;;;;;5036009;28;20265;-62
2022/01/29 05:44:26;;;;;;;28.10;18.83;;;;;;;;;;5036203;28;20204;-62
2022/01/29 05:46:53;;;;;;;28.48;19.52;;;;;;;;;;5036168;28;20206;-61
2022/01/29 05:49:20;;;;;;;28.00;19.75;;;;;;;;;;5040159;28;20222;-62
2022/01/29 05:51:49;;;;;;;29.58;20.25;;;;;;;;;;5046793;28;20226;-62
2022/01/29 05:54:17;;;;;;;28.27;20.40;;;;;;;;;;5036534;28;20206;-62
2022/01/29 05:56:44;;;;;;;26.67;19.52;;;;;;;;;;5036092;28;20207;-62
2022/01/29 05:59:12;;;;;;;28.92;20.58;;;;;;;;;;5035926;28;20225;-62
2022/01/29 06:01:39;;;;;;;27.33;20.95;;;;;;;;;;5036645;28;20235;-61
2022/01/29 06:04:06;;;;;;;27.02;18.42;;;;;;;;;;5035283;28;20209;-62
2022/01/29 06:06:34;;;;;;;25.85;20.17;;;;;;;;;;5035762;28;20199;-61
2022/01/29 06:09:04;;;;;;;24.60;18.60;;;;;;;;;;5035121;28;20686;-60
2022/01/29 06:11:32;;;;;;;24.23;17.90;;;;;;;;;;5035231;28;20310;-61
2022/01/29 06:13:59;;;;;;;21.83;16.88;;;;;;;;;;5035239;28;20238;-61
2022/01/29 06:16:27;;;;;;;25.50;17.63;;;;;;;;;;5034848;28;20205;-61
2022/01/29 06:18:54;;;;;;;23.02;18.33;;;;;;;;;;5035144;28;20206;-61
2022/01/29 06:21:21;;;;;;;23.35;17.85;;;;;;;;;;5034900;28;20239;-61
2022/01/29 06:23:49;;;;;;;19.42;15.82;;;;;;;;;;5034955;28;20202;-60
2022/01/29 06:26:18;;;;;;;22.58;17.77;;;;;;;;;;5035178;28;20207;-60
2022/01/29 06:28:45;;;;;;;20.25;15.85;;;;;;;;;;5035527;28;20222;-61
2022/01/29 06:31:12;;;;;;;20.80;16.65;;;;;;;;;;5035527;28;20764;-60
2022/01/29 06:33:40;;;;;;;19.88;17.00;;;;;;;;;;5036717;28;20288;-60
2022/01/29 06:36:07;;;;;;;20.55;16.65;;;;;;;;;;5035526;28;20230;-60
2022/01/29 06:38:35;;;;;;;22.20;16.42;;;;;;;;;;5035599;28;20666;-60
2022/01/29 06:41:02;;;;;;;28.98;16.17;;;;;;;;;;5035668;28;20313;-60
2022/01/29 06:43:31;;;;;;;21.55;17.83;;;;;;;;;;5036286;28;20301;-59
2022/01/29 06:45:58;;;;;;;24.70;17.33;;;;;;;;;;5035821;28;20202;-59
2022/01/29 06:48:26;;;;;;;25.25;18.70;;;;;;;;;;5035118;28;20313;-60
2022/01/29 06:50:53;;;;;;;24.92;17.52;;;;;;;;;;5035677;28;20258;-59
2022/01/29 06:53:21;;;;;;;22.92;18.33;;;;;;;;;;5034494;28;20237;-59
2022/01/29 06:55:48;;;;;;;24.63;18.58;;;;;;;;;;5034635;28;20290;-60
2022/01/29 06:58:16;;;;;;;25.00;18.92;;;;;;;;;;5034136;28;20293;-60
2022/01/29 07:00:44;;;;;;;22.98;17.65;;;;;;;;;;5034208;28;20800;-59
2022/01/29 07:03:12;;;;;;;26.52;19.55;;;;;;;;;;5034508;28;20205;-60
2022/01/29 07:05:39;;;;;;;24.98;20.30;;;;;;;;;;5034545;28;20216;-61
2022/01/29 07:08:07;;;;;;;24.05;18.70;;;;;;;;;;5034517;28;20698;-59
2022/01/29 07:10:37;;;;;;;23.00;19.45;;;;;;;;;;5034100;28;20721;-61
2022/01/29 07:13:04;;;;;;;25.33;20.30;;;;;;;;;;5033742;28;20207;-61
2022/01/29 07:15:31;;;;;;;24.80;19.05;;;;;;;;;;5034072;28;20206;-60
2022/01/29 07:18:00;;;;;;;23.38;18.80;;;;;;;;;;5033905;28;20203;-61
2022/01/29 07:20:27;;;;;;;22.95;18.92;;;;;;;;;;5033534;28;20238;-60
2022/01/29 07:22:54;;;;;;;28.42;19.38;;;;;;;;;;5033719;28;20202;-61
2022/01/29 07:25:22;;;;;;;27.00;19.05;;;;;;;;;;5033503;28;20205;-60
2022/01/29 07:27:49;;;;;;;24.58;18.10;;;;;;;;;;5034663;28;20202;-61
2022/01/29 07:30:16;;;;;;;24.05;17.33;;;;;;;;;;5035916;28;20618;-60
2022/01/29 07:32:44;;;;;;;24.65;18.35;;;;;;;;;;5035618;28;20584;-61
2022/01/29 07:35:13;;;;;;;25.80;19.25;;;;;;;;;;5034448;28;20225;-60
2022/01/29 07:37:40;;;;;;;22.00;17.67;;;;;;;;;;5033487;28;20716;-59
2022/01/29 07:40:08;;;;;;;26.02;18.38;;;;;;;;;;5033655;28;20233;-61
2022/01/29 07:42:36;;;;;;;24.58;17.65;;;;;;;;;;5033484;28;20206;-60
2022/01/29 07:45:03;;;;;;;23.98;17.10;;;;;;;;;;5033077;28;20581;-59
2022/01/29 07:47:30;;;;;;;22.38;17.95;;;;;;;;;;5032974;28;20202;-62
2022/01/29 07:49:58;;;;;;;21.60;17.02;;;;;;;;;;5032908;28;20566;-62
2022/01/29 07:52:27;;;;;;;23.83;18.58;;;;;;;;;;5033782;28;20206;-61
2022/01/29 07:54:54;;;;;;;22.50;17.45;;;;;;;;;;5035303;28;20560;-62
2022/01/29 07:57:22;;;;;;;20.77;16.90;;;;;;;;;;5051054;28;20658;-62
2022/01/29 07:59:50;;;;;;;20.75;15.77;;;;;;;;;;5049674;28;20194;-63
2022/01/29 08:02:17;;;;;;;20.13;17.15;;;;;;;;;;5044163;28;20571;-61
2022/01/29 08:04:45;;;;;;;17.90;14.50;;;;;;;;;;5045670;28;20206;-62
2022/01/29 08:07:12;;;;;;;20.67;16.13;;;;;;;;;;5047578;28;20202;-63
2022/01/29 08:09:41;;;;;;;17.30;15.05;;;;;;;;;;5047008;28;20226;-62
2022/01/29 08:12:08;;;;;;;19.88;16.77;;;;;;;;;;5046516;28;20202;-62
2022/01/29 08:14:36;;;;;;;18.27;13.45;;;;;;;;;;5043651;28;20213;-62
2022/01/29 08:17:03;;;;;;;20.33;15.88;;;;;;;;;;5045878;28;20205;-62
2022/01/29 08:19:31;;;;;;;19.17;15.57;;;;;;;;;;5046105;28;20201;-62
2022/01/29 08:21:58;;;;;;;18.30;15.00;;;;;;;;;;5040633;28;20234;-62
2022/01/29 08:24:25;;;;;;;17.58;14.27;;;;;;;;;;5033789;28;20213;-62
2022/01/29 08:26:54;;;;;;;20.85;15.90;;;;;;;;;;5033374;28;20206;-62
2022/01/29 08:29:21;;;;;;;17.27;14.55;;;;;;;;;;5033707;28;20226;-62
2022/01/29 08:31:49;;;;;;;17.45;14.75;;;;;;;;;;5033355;28;20229;-62
2022/01/29 08:34:16;;;;;;;18.10;14.25;;;;;;;;;;5033329;28;20310;-62
2022/01/29 08:36:43;;;;;;;16.80;14.13;;;;;;;;;;5032874;28;20206;-62
2022/01/29 08:39:11;;;;;;;17.65;13.55;;;;;;;;;;5033156;28;20286;-63
2022/01/29 08:41:38;;;;;;;17.88;14.05;;;;;;;;;;5032899;28;20222;-62
2022/01/29 08:44:07;;;;;;;20.50;14.88;;;;;;;;;;5032888;28;20682;-62
2022/01/29 08:46:34;;;;;;;19.20;14.15;;;;;;;;;;5032858;28;20237;-63
2022/01/29 08:49:02;;;;;;;16.77;12.23;;;;;;;;;;5032975;28;20218;-63
2022/01/29 08:51:29;;;;;;;17.80;14.80;;;;;;;;;;5032635;28;20222;-60
2022/01/29 08:53:56;;;;;;;17.75;12.13;;;;;;;;;;5033288;28;20203;-60
2022/01/29 08:56:23;;;;;;;17.25;13.77;;;;;;;;;;5036448;28;20198;-62
2022/01/29 08:58:51;;;;;;;17.00;12.02;;;;;;;;;;5037100;28;20205;-61
2022/01/29 09:01:20;;;;;;;19.13;14.60;;;;;;;;;;5035929;28;20714;-62
2022/01/29 09:03:47;;;;;;;18.95;13.27;;;;;;;;;;5036309;28;20206;-63
2022/01/29 09:06:14;;;;;;;14.50;11.55;;;;;;;;;;5035822;28;20203;-62
2022/01/29 09:08:46;;;;;;;13.70;11.05;;;;;;;;;;5035683;28;20225;-63
2022/01/29 09:11:13;;;;;;;15.40;12.23;;;;;;;;;;5036030;28;20309;-62
2022/01/29 09:13:40;;;;;;;18.13;12.20;;;;;;;;;;5036014;28;20202;-63
2022/01/29 09:16:08;;;;;;;16.33;11.57;;;;;;;;;;5036082;28;20202;-61
2022/01/29 09:18:36;;;;;;;16.02;11.75;;;;;;;;;;5035818;28;20694;-62
2022/01/29 09:21:04;;;;;;;17.00;12.02;;;;;;;;;;5035522;28;20230;-61
2022/01/29 09:23:31;;;;;;;16.70;13.10;;;;;;;;;;5036010;28;20202;-62
2022/01/29 09:26:01;;;;;;;14.35;10.50;;;;;;;;;;5036006;28;20209;-62
2022/01/29 09:28:28;;;;;;;16.42;10.75;;;;;;;;;;5035680;28;20206;-61
2022/01/29 09:30:55;;;;;;;14.10;10.98;;;;;;;;;;5036600;28;20573;-62
2022/01/29 09:33:23;;;;;;;14.82;11.27;;;;;;;;;;5036342;28;20205;-62
2022/01/29 09:35:51;;;;;;;16.15;12.02;;;;;;;;;;5036075;28;20199;-61
2022/01/29 09:38:19;;;;;;;17.02;11.45;;;;;;;;;;5037176;28;20674;-62
2022/01/29 09:40:46;;;;;;;15.93;10.93;;;;;;;;;;5037684;28;20226;-63
2022/01/29 09:43:13;;;;;;;11.50;9.63;;;;;;;;;;5036310;28;20206;-63
2022/01/29 09:45:43;;;;;;;16.77;11.55;;;;;;;;;;5035720;28;20217;-62
2022/01/29 09:48:10;;;;;;;15.23;10.52;;;;;;;;;;5035710;28;20206;-62
2022/01/29 09:50:38;;;;;;;13.00;9.80;;;;;;;;;;5035782;28;20222;-63
2022/01/29 09:53:08;;;;;;;14.77;11.25;;;;;;;;;;5035861;28;20210;-62
2022/01/29 09:55:36;;;;;;;18.00;11.02;;;;;;;;;;5035548;28;20705;-62
2022/01/29 09:58:03;;;;;;;14.35;9.65;;;;;;;;;;5035939;28;20202;-62
2022/01/29 10:00:31;;;;;;;17.35;11.10;;;;;;;;;;5036131;28;20310;-62
2022/01/29 10:03:19;;;;;;;15.48;10.32;;;;;;;;;;5036044;28;20229;-62
2022/01/29 10:05:48;;;;;;;14.25;10.93;;;;;;;;;;5035871;28;20270;-62
2022/01/29 10:08:17;;;;;;;17.38;10.00;;;;;;;;;;5037287;28;20206;-62
2022/01/29 10:10:45;;;;;;;11.27;9.30;;;;;;;;;;5036803;28;20229;-62
2022/01/29 10:13:22;;;;;;;11.55;9.25;;;;;;;;;;5035755;28;20206;-62
2022/01/29 10:15:51;;;;;;;11.80;8.50;;;;;;;;;;5035834;28;20206;-62
2022/01/29 10:18:22;;;;;;;11.63;9.45;;;;;;;;;;5035449;28;20236;-62
2022/01/29 10:20:49;;;;;;;12.77;9.10;;;;;;;;;;5059330;22;20226;-56
2022/01/29 10:23:18;;;;;;;12.25;9.90;;;;;;;;;;5034954;28;20202;-56
2022/01/29 10:25:51;;;;;;;10.45;9.43;;;;;;;;;;5034636;28;20206;-57
2022/01/29 10:28:22;;;;;;;9.15;7.32;;;;;;;;;;5034739;28;20191;-57
2022/01/29 10:31:02;;;;;;;7.82;6.78;;;;;;;;;;5034286;28;20757;-55
2022/01/29 10:33:30;;;;;;;8.70;7.05;;;;;;;;;;5034426;28;20543;-58
2022/01/29 10:35:58;;;;;;;9.30;7.00;;;;;;;;;;5034542;28;20575;-58
2022/01/29 10:38:28;;;;;;;9.02;6.88;;;;;;;;;;5034658;28;20211;-57
2022/01/29 10:41:12;;;;;;;9.35;7.18;;;;;;;;;;5034533;28;20233;-56
2022/01/29 10:43:54;;;;;;;7.13;5.53;;;;;;;;;;5034155;28;20798;-57
2022/01/29 10:46:28;;;;;;;7.07;6.05;;;;;;;;;;5034295;28;20186;-57
2022/01/29 10:48:55;;;;;;;7.30;5.80;;;;;;;;;;5034367;28;20210;-57
2022/01/29 10:51:23;;;;;;;6.22;5.25;;;;;;;;;;5034344;28;20657;-57
2022/01/29 10:53:52;;;;;;;6.93;6.20;;;;;;;;;;5036005;28;20206;-56
2022/01/29 10:56:21;;;;;;;6.60;5.90;;;;;;;;;;5035163;28;20240;-57
2022/01/29 10:58:52;;;;;;;5.53;4.95;;;;;;;;;;5035488;28;20206;-55
2022/01/29 11:01:22;;;;;;;6.95;5.53;;;;;;;;;;5036548;28;20237;-58
2022/01/29 11:03:50;;;;;;;6.70;5.40;;;;;;;;;;5036006;28;20202;-58
2022/01/29 11:06:19;;;;;;;5.30;4.60;;;;;;;;;;5036138;28;20305;-57
2022/01/29 11:08:47;;;;;;;8.88;5.53;;;;;;;;;;5035844;28;20225;-57
2022/01/29 11:11:17;;;;;;;8.32;4.78;;;;;;;;;;5035911;28;20234;-57
2022/01/29 11:13:46;;;;;;;5.60;4.45;;;;;;;;;;5035946;28;20237;-59
2022/01/29 11:16:14;;;;;;;5.05;4.60;;;;;;;;;;5035808;28;20214;-59
2022/01/29 11:18:42;;;;;;;8.05;4.88;;;;;;;;;;5034420;28;20207;-57
2022/01/29 11:21:09;;;;;;;5.70;4.53;;;;;;;;;;5034996;28;20321;-57
2022/01/29 11:23:36;;;;;;;6.72;5.05;;;;;;;;;;5034216;28;20206;-56
2022/01/29 11:26:04;;;;;;;4.43;4.03;;;;;;;;;;5034725;28;20574;-57
2022/01/29 11:28:34;;;;;;;4.90;3.70;;;5.60;99.90;;;;;;5035324;28;20449;-56
2022/01/29 11:31:25;;;;;;;5.85;4.65;;;9.50;99.90;;;;;;5035315;28;20229;-57
2022/01/29 11:34:21;;;;;;;7.18;5.30;;;9.60;99.90;;;;;;5033742;28;20222;-57
2022/01/29 11:37:07;;;;;;;5.63;4.67;;;9.80;99.90;;;;;;5033838;28;20206;-58
2022/01/29 11:39:36;;;;;;;6.43;5.22;;;9.80;99.90;;;;;;5034172;28;20467;-56
2022/01/29 11:42:32;;;;;;;5.93;5.30;;;9.90;99.90;;;;;;5034085;28;20222;-56
2022/01/29 11:45:52;;;;;;;5.85;4.97;;;9.90;99.90;;;;;;5033631;28;20202;-57
2022/01/29 11:48:58;;;;;;;5.10;4.50;;;9.90;99.90;;;;;;4992132;28;20769;-56
2022/01/29 11:51:46;;;;;;;6.15;5.55;;;9.80;99.90;;;;;;5033589;28;20495;-57
2022/01/29 11:54:22;;;;;;;6.30;4.90;;;9.80;99.90;;;;;;5033340;28;20207;-58
2022/01/29 11:57:08;;;;;;;5.60;5.00;;;9.80;99.90;;;;;;5033543;28;20206;-57
2022/01/29 11:59:35;;;;;;;6.63;5.65;;;9.70;99.90;;;;;;5033963;28;20825;-57
2022/01/29 12:02:43;;;;;;;6.25;5.28;;;9.70;99.90;;;;;;5033218;28;20238;-57
2022/01/29 12:05:11;;;;;;;7.25;5.70;;;9.70;99.90;;;;;;5033104;28;20231;-57
2022/01/29 12:08:09;;;;;;;6.28;5.68;;;9.70;99.90;;;;;;5033069;28;20268;-56
2022/01/29 12:10:37;;;;;;;5.33;4.60;;;9.70;99.90;;;;;;5033199;28;20273;-56
2022/01/29 12:13:15;;;;;;;6.27;5.53;;;9.70;99.90;;;;;;5033357;28;20445;-56
2022/01/29 12:15:43;;;;;;;5.67;5.00;;;9.70;99.90;;;;;;5033901;28;20774;-56
2022/01/29 12:18:30;;;;;;;6.00;5.13;;;9.80;99.90;;;;;;5033927;28;20520;-57
2022/01/29 12:20:57;;;;;;;4.93;4.43;;;9.70;99.90;;;;;;5034097;28;20917;-56
2022/01/29 12:23:26;;;;;;;5.85;5.25;;;9.70;99.90;;;;;;5034542;28;20215;-56
2022/01/29 12:25:56;;;;;;;4.87;4.37;;;9.70;99.90;;;;;;5034186;28;20206;-56
2022/01/29 12:28:23;;;;;;;6.22;5.50;;;9.70;99.90;;;;;;5033582;28;20449;-56
2022/01/29 12:30:50;;;;;;;6.47;5.30;;;9.60;99.90;;;;;;5036374;28;20716;-57
2022/01/29 12:33:19;;;;;;;4.75;4.28;;;9.60;99.90;;;;;;5036997;28;20674;-56
2022/01/29 12:35:53;;;;;;;6.63;5.43;;;9.50;99.90;;;;;;5037212;28;20202;-56
2022/01/29 12:38:25;;;;;;;9.85;6.20;;;9.40;99.90;;;;;;5037614;28;20290;-57
2022/01/29 12:40:55;;;;;;;7.30;5.20;;;9.30;99.90;;;;;;5036908;28;20268;-57
2022/01/29 12:43:26;;;;;;;7.18;6.07;;;9.20;99.90;;;;;;5037093;28;20244;-56
2022/01/29 12:45:54;;;;;;;8.25;6.57;;;9.20;99.90;;;;;;5037469;28;20246;-56
2022/01/29 12:48:21;;;;;;;6.38;5.20;;;9.10;99.90;;;;;;5036735;28;20210;-57
2022/01/29 12:50:50;;;;;;;7.80;6.40;;;9.00;99.90;;;;;;5036445;28;20227;-55
2022/01/29 12:53:19;;;;;;;6.13;5.20;;;9.00;99.90;;;;;;5037045;28;20202;-56
2022/01/29 12:56:03;;;;;;;7.32;6.60;;;9.00;99.90;;;;;;5037130;28;20202;-57
2022/01/29 12:58:32;;;;;;;9.02;6.72;;;9.00;99.90;;;;;;5036965;28;20182;-56
2022/01/29 13:01:05;;;;;;;6.93;6.22;;;9.00;99.90;;;;;;5036814;28;20250;-57
2022/01/29 13:03:33;;;;;;;8.32;6.88;;;9.00;99.90;;;;;;5036871;28;20289;-56
2022/01/29 13:06:08;;;;;;;6.75;5.28;;;9.10;99.90;;;;;;5036793;28;20209;-57
2022/01/29 13:08:35;;;;;;;6.50;5.88;;;9.10;99.90;;;;;;5036684;28;20190;-57
2022/01/29 13:11:03;;;;;;;7.53;6.07;;;9.20;99.90;;;;;;5036268;28;20317;-57
2022/01/29 13:13:31;;;;;;;7.20;6.50;;;9.30;99.90;;;;;;5036617;28;20289;-58
2022/01/29 13:15:59;;;;;;;8.90;6.65;;;9.30;99.90;;;;;;5036504;28;20206;-57
2022/01/29 13:18:27;;;;;;;8.02;7.22;;;9.30;99.90;;;;;;5036323;28;20229;-55
2022/01/29 13:20:54;;;;;;;7.60;6.30;;;9.40;99.90;;;;;;5035865;28;20237;-57
2022/01/29 13:23:23;;;;;;;7.15;6.32;;;9.40;99.90;;;;;;5036287;28;20202;-57
2022/01/29 13:25:50;;;;;;;8.93;6.45;;;9.50;99.90;;;;;;5036084;28;20198;-57
2022/01/29 13:28:18;;;;;;;7.30;6.35;;;9.60;99.90;;;;;;5036189;28;20574;-56
2022/01/29 13:30:48;;;;;;;6.60;5.80;;;9.70;99.90;;;;;;5035870;28;20226;-57
2022/01/29 13:33:17;;;;;;;6.30;5.70;;;9.70;99.90;;;;;;5036384;28;20202;-57
2022/01/29 13:35:49;;;;;;;7.00;6.30;;;9.70;99.90;;;;;;5036108;28;20249;-58
2022/01/29 13:38:27;;;;;;;9.68;7.07;;;9.80;99.90;;;;;;5035872;28;20229;-59
2022/01/29 13:40:57;;;;;;;5.78;5.18;;;9.80;99.90;;;;;;5036381;28;20246;-57
2022/01/29 13:43:32;;;;;;;8.65;6.97;;;9.90;99.90;;;;;;5036708;28;20194;-58
2022/01/29 13:46:01;;;;;;;7.18;6.45;;;9.90;99.90;;;;;;5035811;28;20191;-57
2022/01/29 13:48:41;;;;;;;8.97;6.07;;;9.90;99.90;;;;;;5035363;28;20596;-57
2022/01/29 13:51:10;;;;;;;7.40;5.47;;;9.90;99.90;;;;;;5035142;28;20484;-58
2022/01/29 13:53:45;;;;;;;6.85;5.40;;;9.90;99.90;;;;;;5035322;28;20445;-58
2022/01/29 13:56:14;;;;;;;7.13;6.32;;;10.00;99.90;;;;;;5035266;28;20190;-57
2022/01/29 13:58:53;;;;;;;6.50;5.50;;;10.00;99.90;;;;;;5035790;28;20293;-59
2022/01/29 14:01:44;;;;;;;6.23;5.63;;;9.90;99.90;;;;;;5035302;28;20465;-57
2022/01/29 14:04:12;;;;;;;7.87;6.60;;;9.80;99.90;;;;;;5035653;28;20438;-57
2022/01/29 14:06:43;;;;;;;9.32;7.25;;;9.60;99.90;;;;;;5035191;28;20461;-55
2022/01/29 14:09:25;;;;;;;7.72;6.85;;;9.50;99.90;;;;;;5035443;28;20291;-58
2022/01/29 14:12:04;;;;;;;8.43;6.50;;;9.40;99.90;;;;;;5044832;28;20253;-57
2022/01/29 14:14:33;;;;;;;13.57;7.22;;;9.30;99.90;;;;;;5035204;28;20187;-59
2022/01/29 14:17:03;;;;;;;10.30;7.30;;;9.20;99.90;;;;;;5034962;28;20206;-57
2022/01/29 14:19:32;;;;;;;10.40;8.32;;;9.20;99.90;;;;;;5041551;28;20205;-58
2022/01/29 14:22:01;;;;;;;9.43;7.63;;;9.10;99.90;;;;;;5034766;28;20226;-59
2022/01/29 14:24:29;;;;;;;13.70;8.32;;;9.10;99.90;;;;;;5034761;28;20209;-59
2022/01/29 14:26:57;;;;;;;8.25;6.80;;;9.10;99.90;;;;;;5035202;28;20208;-59
2022/01/29 14:29:25;;;;;;;10.52;8.18;;;9.20;99.90;;;;;;5035006;28;20298;-57